Snow/Ice From: 16-12-2017 16:00 Until: 17-12-2017 16:00 warning for: Snow/Ice Level: Yellow info button

Although rather usual in this region, locally or potentially dangerous phenomena are expected. (such as local winds, summer thunderstorms, rising streams or high waves) Be aware and pay attention to the latest weather updates, especially if you carry out activities exposed to weather or close to a stream or shoreline. 


Meteo18 Weather Cam more information Meteo18 Weather Cam


Thunder radar more information blitzortung!


warning for Snow/Ice more information rain snow radar


Visit our other weather sites:

Template documentation
and downloads

And another site



Weather Underground History page Text

Daily Summary for August 6, 2016 Units:  Metric    English   Both
« Previous Day
Next Day »
Daily Weekly Monthly Yearly Custom
  High: Low: Average:
Temperature: 24.1 °C 12.4 °C 18.7 °C
Dew Point: 12.8 °C 9.8 °C 11.2 °C
Humidity: 86 % 43 % 64 %
Wind Speed: 19.3 km/h 0.0 km/h 4.9 km/h
Wind Gust: 24.1 km/h - -
Wind:- - WSW
Pressure: 1029.0 hPa 1024.9 hPa -
Precipitation: 0.0 mm    
Historical Graphs
 
 
Tabular Data for August 6, 2016
Time Temperature Dew Point Pressure Wind Wind Speed Wind Gust Humidity Rainfall Rate (Hourly)
00:02 14.6 °C 11.2 °C 1024.9 hPa Calm     80 % 0.0 mm
00:07 14.5 °C 11.1 °C 1024.9 hPa Calm     80 % 0.0 mm
00:12 14.4 °C 11.2 °C 1024.9 hPa Calm     81 % 0.0 mm
00:17 14.3 °C 11.1 °C 1024.9 hPa Calm     81 % 0.0 mm
00:22 14.2 °C 11.0 °C 1024.9 hPa Calm     81 % 0.0 mm
00:27 14.1 °C 10.9 °C 1024.9 hPa Calm     81 % 0.0 mm
00:32 14.0 °C 10.8 °C 1024.9 hPa Calm     81 % 0.0 mm
00:37 14.0 °C 10.8 °C 1024.9 hPa Calm     81 % 0.0 mm
00:42 14.0 °C 10.8 °C 1024.9 hPa Calm     81 % 0.0 mm
00:47 14.0 °C 10.8 °C 1024.9 hPa Calm     81 % 0.0 mm
00:52 14.0 °C 10.8 °C 1024.9 hPa Calm     81 % 0.0 mm
00:57 14.0 °C 10.8 °C 1024.9 hPa Calm     81 % 0.0 mm
01:02 14.0 °C 10.8 °C 1025.3 hPa Calm     81 % 0.0 mm
01:07 13.9 °C 10.7 °C 1025.3 hPa Calm     81 % 0.0 mm
01:12 13.8 °C 10.6 °C 1025.3 hPa Calm     81 % 0.0 mm
01:17 13.8 °C 10.8 °C 1025.3 hPa Calm     82 % 0.0 mm
01:22 13.9 °C 10.7 °C 1025.3 hPa Calm     81 % 0.0 mm
01:27 14.1 °C 10.7 °C 1025.3 hPa Calm     80 % 0.0 mm
01:32 14.2 °C 10.8 °C 1025.3 hPa Calm   1.6 km/h 80 % 0.0 mm
01:37 14.2 °C 10.6 °C 1025.3 hPa Calm   1.6 km/h 79 % 0.0 mm
01:42 14.1 °C 10.5 °C 1025.3 hPa WNW 1.6 km/h 3.2 km/h 79 % 0.0 mm
01:47 14.1 °C 10.5 °C 1025.3 hPa WNW 4.8 km/h 4.8 km/h 79 % 0.0 mm
01:52 14.2 °C 10.4 °C 1025.3 hPa WNW 3.2 km/h 6.4 km/h 78 % 0.0 mm
01:57 14.4 °C 10.4 °C 1025.3 hPa WNW 4.8 km/h 6.4 km/h 77 % 0.0 mm
02:02 14.6 °C 10.4 °C 1025.3 hPa WNW 4.8 km/h 8.0 km/h 76 % 0.0 mm
02:07 14.8 °C 10.6 °C 1025.3 hPa WNW 3.2 km/h 8.0 km/h 76 % 0.0 mm
02:12 15.3 °C 10.7 °C 1025.3 hPa NW 1.6 km/h 8.0 km/h 74 % 0.0 mm
02:17 15.5 °C 10.7 °C 1025.3 hPa NW 3.2 km/h 8.0 km/h 73 % 0.0 mm
02:22 15.6 °C 10.8 °C 1025.3 hPa NW 4.8 km/h 9.7 km/h 73 % 0.0 mm
02:27 15.6 °C 10.8 °C 1025.3 hPa WNW 4.8 km/h 9.7 km/h 73 % 0.0 mm
02:32 15.6 °C 10.8 °C 1025.3 hPa NNW 1.6 km/h 9.7 km/h 73 % 0.0 mm
02:37 15.6 °C 10.8 °C 1025.3 hPa NW 3.2 km/h 9.7 km/h 73 % 0.0 mm
02:47 15.4 °C 10.6 °C 1025.3 hPa WNW 6.4 km/h 9.7 km/h 73 % 0.0 mm
02:52 15.4 °C 10.6 °C 1025.3 hPa WNW 9.7 km/h 9.7 km/h 73 % 0.0 mm
02:57 15.4 °C 10.4 °C 1025.3 hPa WNW 6.4 km/h 11.3 km/h 72 % 0.0 mm
03:02 15.4 °C 10.4 °C 1025.3 hPa West 3.2 km/h 11.3 km/h 72 % 0.0 mm
03:07 15.4 °C 10.4 °C 1025.3 hPa WNW 6.4 km/h 14.5 km/h 72 % 0.0 mm
03:12 15.5 °C 10.5 °C 1025.3 hPa WNW 4.8 km/h 14.5 km/h 72 % 0.0 mm
03:17 15.4 °C 10.4 °C 1025.3 hPa WSW 4.8 km/h 14.5 km/h 72 % 0.0 mm
03:22 15.4 °C 10.4 °C 1025.3 hPa NW 6.4 km/h 14.5 km/h 72 % 0.0 mm
03:27 15.4 °C 10.4 °C 1025.6 hPa West 1.6 km/h 12.9 km/h 72 % 0.0 mm
03:32 15.4 °C 10.4 °C 1025.6 hPa NW 3.2 km/h 14.5 km/h 72 % 0.0 mm
03:37 15.3 °C 10.3 °C 1025.6 hPa WNW 4.8 km/h 14.5 km/h 72 % 0.0 mm
03:47 15.2 °C 10.4 °C 1025.6 hPa NW 6.4 km/h 17.7 km/h 73 % 0.0 mm
03:52 15.1 °C 10.5 °C 1025.6 hPa NW 6.4 km/h 14.5 km/h 74 % 0.0 mm
03:57 15.0 °C 10.4 °C 1025.3 hPa West 6.4 km/h 11.3 km/h 74 % 0.0 mm
04:02 14.9 °C 10.3 °C 1025.6 hPa WNW 4.8 km/h 11.3 km/h 74 % 0.0 mm
04:07 14.8 °C 10.4 °C 1025.3 hPa NW 3.2 km/h 11.3 km/h 75 % 0.0 mm
04:12 14.7 °C 10.5 °C 1025.3 hPa NW 4.8 km/h 11.3 km/h 76 % 0.0 mm
04:17 14.6 °C 10.4 °C 1025.3 hPa WNW 1.6 km/h 11.3 km/h 76 % 0.0 mm
04:22 14.5 °C 10.5 °C 1025.3 hPa North 3.2 km/h 11.3 km/h 77 % 0.0 mm
04:27 14.5 °C 10.5 °C 1025.3 hPa North 3.2 km/h 11.3 km/h 77 % 0.0 mm
04:42 13.9 °C 10.3 °C 1025.3 hPa NW 3.2 km/h 8.0 km/h 79 % 0.0 mm
04:47 13.9 °C 10.3 °C 1025.3 hPa NW 6.4 km/h 8.0 km/h 79 % 0.0 mm
04:52 13.8 °C 10.2 °C 1025.3 hPa NNW 3.2 km/h 9.7 km/h 79 % 0.0 mm
04:57 13.7 °C 10.3 °C 1025.3 hPa NNW 1.6 km/h 9.7 km/h 80 % 0.0 mm
05:02 13.7 °C 10.3 °C 1025.6 hPa North 1.6 km/h 9.7 km/h 80 % 0.0 mm
05:17 13.4 °C 10.2 °C 1025.6 hPa Calm   4.8 km/h 81 % 0.0 mm
05:22 13.4 °C 10.2 °C 1025.6 hPa Calm   1.6 km/h 81 % 0.0 mm
05:27 13.3 °C 10.3 °C 1025.6 hPa Calm   1.6 km/h 82 % 0.0 mm
05:32 13.1 °C 10.1 °C 1025.6 hPa Calm   1.6 km/h 82 % 0.0 mm
05:37 12.9 °C 10.1 °C 1025.6 hPa Calm   1.6 km/h 83 % 0.0 mm
05:42 12.9 °C 10.1 °C 1025.6 hPa Calm   1.6 km/h 83 % 0.0 mm
05:47 12.8 °C 10.0 °C 1025.6 hPa Calm   3.2 km/h 83 % 0.0 mm
05:52 12.7 °C 10.1 °C 1025.6 hPa NW 1.6 km/h 3.2 km/h 84 % 0.0 mm
05:57 12.8 °C 10.2 °C 1026.0 hPa NW 1.6 km/h 4.8 km/h 84 % 0.0 mm
06:02 12.9 °C 10.3 °C 1025.6 hPa WNW 3.2 km/h 4.8 km/h 84 % 0.0 mm
06:07 13.1 °C 10.5 °C 1025.6 hPa Calm   4.8 km/h 84 % 0.0 mm
06:12 13.1 °C 10.5 °C 1026.0 hPa NW 3.2 km/h 6.4 km/h 84 % 0.0 mm
06:17 13.1 °C 10.5 °C 1026.0 hPa WNW 3.2 km/h 6.4 km/h 84 % 0.0 mm
06:22 13.0 °C 10.4 °C 1026.0 hPa NW 1.6 km/h 6.4 km/h 84 % 0.0 mm
06:32 12.7 °C 10.1 °C 1026.0 hPa West 1.6 km/h 4.8 km/h 84 % 0.0 mm
06:37 12.5 °C 10.0 °C 1026.0 hPa WNW 3.2 km/h 3.2 km/h 85 % 0.0 mm
06:42 12.4 °C 9.9 °C 1026.0 hPa WNW 1.6 km/h 3.2 km/h 85 % 0.0 mm
06:47 12.4 °C 10.1 °C 1026.0 hPa NW 1.6 km/h 4.8 km/h 86 % 0.0 mm
06:52 12.6 °C 10.3 °C 1026.0 hPa NW 4.8 km/h 4.8 km/h 86 % 0.0 mm
06:57 12.7 °C 10.4 °C 1026.0 hPa NNW 4.8 km/h 8.0 km/h 86 % 0.0 mm
07:02 12.8 °C 10.3 °C 1026.0 hPa NW 3.2 km/h 8.0 km/h 85 % 0.0 mm
07:12 12.9 °C 10.4 °C 1026.3 hPa NNW 3.2 km/h 9.7 km/h 85 % 0.0 mm
07:17 13.1 °C 10.6 °C 1026.3 hPa NW 8.0 km/h 9.7 km/h 85 % 0.0 mm
07:22 13.1 °C 10.6 °C 1026.3 hPa NW 3.2 km/h 9.7 km/h 85 % 0.0 mm
07:27 13.2 °C 10.7 °C 1026.3 hPa NW 4.8 km/h 9.7 km/h 85 % 0.0 mm
07:32 13.4 °C 10.8 °C 1026.3 hPa NW 6.4 km/h 11.3 km/h 84 % 0.0 mm
07:37 13.5 °C 10.8 °C 1026.3 hPa WNW 1.6 km/h 11.3 km/h 84 % 0.0 mm
07:42 13.6 °C 10.9 °C 1026.3 hPa NW 1.6 km/h 11.3 km/h 84 % 0.0 mm
07:47 13.8 °C 11.1 °C 1026.6 hPa NW 1.6 km/h 8.0 km/h 84 % 0.0 mm
07:52 13.8 °C 11.1 °C 1026.6 hPa NW 1.6 km/h 8.0 km/h 84 % 0.0 mm
07:57 13.8 °C 11.1 °C 1026.6 hPa Calm   8.0 km/h 84 % 0.0 mm
08:07 14.6 °C 11.6 °C 1026.6 hPa NNE 4.8 km/h 9.7 km/h 82 % 0.0 mm
08:12 14.9 °C 11.7 °C 1026.6 hPa NNW 4.8 km/h 11.3 km/h 81 % 0.0 mm
08:17 15.1 °C 11.7 °C 1027.0 hPa NNE 6.4 km/h 11.3 km/h 80 % 0.0 mm
08:22 15.3 °C 11.9 °C 1027.0 hPa NNW 1.6 km/h 11.3 km/h 80 % 0.0 mm
08:27 15.4 °C 11.8 °C 1026.6 hPa NW 3.2 km/h 11.3 km/h 79 % 0.0 mm
08:32 15.4 °C 11.8 °C 1027.0 hPa NNE 1.6 km/h 9.7 km/h 79 % 0.0 mm
08:42 15.8 °C 12.2 °C 1027.0 hPa Calm   9.7 km/h 79 % 0.0 mm
08:47 16.2 °C 12.4 °C 1027.0 hPa NNE 4.8 km/h 6.4 km/h 78 % 0.0 mm
08:52 16.5 °C 12.5 °C 1027.0 hPa NW 1.6 km/h 6.4 km/h 77 % 0.0 mm
09:02 16.9 °C 12.4 °C 1027.3 hPa Calm   12.9 km/h 75 % 0.0 mm
09:07 17.2 °C 12.5 °C 1027.0 hPa WNW 1.6 km/h 12.9 km/h 74 % 0.0 mm
09:12 17.4 °C 12.3 °C 1027.3 hPa NNE 4.8 km/h 12.9 km/h 72 % 0.0 mm
09:17 17.7 °C 12.8 °C 1027.3 hPa NNW 4.8 km/h 12.9 km/h 73 % 0.0 mm
09:22 17.8 °C 12.3 °C 1027.3 hPa NW 4.8 km/h 12.9 km/h 70 % 0.0 mm
09:27 17.7 °C 12.4 °C 1027.3 hPa North 4.8 km/h 16.1 km/h 71 % 0.0 mm
09:32 17.9 °C 12.8 °C 1027.3 hPa NNW 8.0 km/h 16.1 km/h 72 % 0.0 mm
09:37 18.1 °C 12.8 °C 1027.7 hPa NNW 9.7 km/h 16.1 km/h 71 % 0.0 mm
09:42 18.2 °C 12.6 °C 1027.7 hPa North 6.4 km/h 16.1 km/h 70 % 0.0 mm
09:47 18.3 °C 12.7 °C 1027.3 hPa North 8.0 km/h 19.3 km/h 70 % 0.0 mm
09:52 18.6 °C 12.8 °C 1027.3 hPa NW 6.4 km/h 19.3 km/h 69 % 0.0 mm
09:57 18.7 °C 12.7 °C 1027.7 hPa West 6.4 km/h 14.5 km/h 68 % 0.0 mm
10:02 18.8 °C 12.5 °C 1027.3 hPa NW 6.4 km/h 12.9 km/h 67 % 0.0 mm
10:07 18.8 °C 12.3 °C 1027.3 hPa WNW 8.0 km/h 16.1 km/h 66 % 0.0 mm
10:12 18.8 °C 12.5 °C 1027.7 hPa North 6.4 km/h 16.1 km/h 67 % 0.0 mm
10:17 18.9 °C 12.4 °C 1027.7 hPa NW 6.4 km/h 16.1 km/h 66 % 0.0 mm
10:22 19.1 °C 12.6 °C 1027.7 hPa NE 8.0 km/h 14.5 km/h 66 % 0.0 mm
10:32 19.1 °C 12.4 °C 1027.7 hPa North 6.4 km/h 16.1 km/h 65 % 0.0 mm
10:37 19.4 °C 12.7 °C 1027.7 hPa North 6.4 km/h 17.7 km/h 65 % 0.0 mm
10:42 19.5 °C 12.7 °C 1027.7 hPa North 8.0 km/h 17.7 km/h 65 % 0.0 mm
10:47 19.5 °C 12.5 °C 1027.7 hPa NNE 8.0 km/h 17.7 km/h 64 % 0.0 mm
10:52 19.7 °C 12.5 °C 1027.7 hPa NW 3.2 km/h 17.7 km/h 63 % 0.0 mm
10:57 19.7 °C 12.5 °C 1027.7 hPa North 3.2 km/h 17.7 km/h 63 % 0.0 mm
11:12 20.1 °C 12.6 °C 1027.7 hPa WNW 6.4 km/h 16.1 km/h 62 % 0.0 mm
11:17 20.3 °C 12.5 °C 1027.7 hPa NE 1.6 km/h 16.1 km/h 61 % 0.0 mm
11:22 20.3 °C 12.5 °C 1027.7 hPa WNW 4.8 km/h 12.9 km/h 61 % 0.0 mm
11:27 20.0 °C 12.5 °C 1027.7 hPa SW 4.8 km/h 11.3 km/h 62 % 0.0 mm
11:32 19.7 °C 12.2 °C 1027.7 hPa SW 1.6 km/h 17.7 km/h 62 % 0.0 mm
11:37 19.8 °C 12.1 °C 1027.7 hPa WNW 1.6 km/h 19.3 km/h 61 % 0.0 mm
11:42 19.9 °C 12.4 °C 1027.7 hPa NNW 8.0 km/h 19.3 km/h 62 % 0.0 mm
11:47 20.5 °C 12.0 °C 1027.7 hPa WNW 4.8 km/h 16.1 km/h 58 % 0.0 mm
11:52 20.3 °C 11.5 °C 1027.7 hPa NNW 4.8 km/h 14.5 km/h 57 % 0.0 mm
11:57 20.6 °C 12.0 °C 1027.7 hPa West 6.4 km/h 14.5 km/h 58 % 0.0 mm
12:02 20.7 °C 11.6 °C 1027.7 hPa North 9.7 km/h 14.5 km/h 56 % 0.0 mm
12:07 20.7 °C 11.3 °C 1027.7 hPa WNW 11.3 km/h 20.9 km/h 55 % 0.0 mm
12:12 21.0 °C 11.6 °C 1027.7 hPa NW 1.6 km/h 20.9 km/h 55 % 0.0 mm
12:17 21.2 °C 11.5 °C 1027.7 hPa North 12.9 km/h 20.9 km/h 54 % 0.0 mm
12:22 21.2 °C 12.1 °C 1027.7 hPa NNW 1.6 km/h 16.1 km/h 56 % 0.0 mm
12:27 20.9 °C 11.8 °C 1027.7 hPa WNW 4.8 km/h 16.1 km/h 56 % 0.0 mm
12:32 21.2 °C 11.8 °C 1027.7 hPa NW 4.8 km/h 16.1 km/h 55 % 0.0 mm
12:42 21.1 °C 11.4 °C 1028.0 hPa WNW 11.3 km/h 16.1 km/h 54 % 0.0 mm
12:47 21.2 °C 11.8 °C 1027.7 hPa Calm   16.1 km/h 55 % 0.0 mm
12:52 21.5 °C 10.9 °C 1028.0 hPa NW 9.7 km/h 22.5 km/h 51 % 0.0 mm
12:57 21.4 °C 10.5 °C 1028.0 hPa NW 4.8 km/h 22.5 km/h 50 % 0.0 mm
13:02 21.5 °C 10.6 °C 1027.7 hPa West 12.9 km/h 22.5 km/h 50 % 0.0 mm
13:07 21.6 °C 10.4 °C 1027.7 hPa WNW 6.4 km/h 17.7 km/h 49 % 0.0 mm
13:12 21.6 °C 10.4 °C 1027.7 hPa NW 9.7 km/h 17.7 km/h 49 % 0.0 mm
13:17 21.9 °C 11.3 °C 1027.7 hPa NE 8.0 km/h 19.3 km/h 51 % 0.0 mm
13:22 21.8 °C 11.5 °C 1027.7 hPa East 6.4 km/h 19.3 km/h 52 % 0.0 mm
13:32 22.3 °C 11.1 °C 1027.7 hPa NNW 3.2 km/h 19.3 km/h 49 % 0.0 mm
13:37 22.4 °C 10.5 °C 1027.7 hPa NW 3.2 km/h 16.1 km/h 47 % 0.0 mm
13:42 22.7 °C 10.8 °C 1027.7 hPa WNW 19.3 km/h 19.3 km/h 47 % 0.0 mm
13:47 22.5 °C 10.6 °C 1027.7 hPa West 4.8 km/h 19.3 km/h 47 % 0.0 mm
13:57 22.7 °C 10.5 °C 1027.7 hPa NNE 8.0 km/h 19.3 km/h 46 % 0.0 mm
14:02 23.0 °C 11.1 °C 1027.7 hPa NNW 6.4 km/h 17.7 km/h 47 % 0.0 mm
14:07 23.1 °C 10.8 °C 1027.7 hPa WNW 14.5 km/h 17.7 km/h 46 % 0.0 mm
14:12 22.4 °C 10.5 °C 1027.7 hPa WNW 19.3 km/h 19.3 km/h 47 % 0.0 mm
14:17 22.2 °C 10.7 °C 1027.7 hPa WSW 6.4 km/h 24.1 km/h 48 % 0.0 mm
14:22 22.6 °C 11.3 °C 1027.7 hPa NNW 6.4 km/h 24.1 km/h 49 % 0.0 mm
14:32 22.9 °C 11.0 °C 1027.7 hPa NW 9.7 km/h 22.5 km/h 47 % 0.0 mm
14:37 22.7 °C 10.2 °C 1027.7 hPa North 11.3 km/h 22.5 km/h 45 % 0.0 mm
14:42 22.7 °C 9.8 °C 1027.3 hPa NE 4.8 km/h 22.5 km/h 44 % 0.0 mm
14:47 23.0 °C 11.1 °C 1027.7 hPa WSW 11.3 km/h 19.3 km/h 47 % 0.0 mm
14:57 22.9 °C 10.7 °C 1027.7 hPa NNW 6.4 km/h 17.7 km/h 46 % 0.0 mm
15:02 23.3 °C 11.0 °C 1027.7 hPa NW 14.5 km/h 17.7 km/h 46 % 0.0 mm
15:07 23.2 °C 10.6 °C 1027.7 hPa WNW 3.2 km/h 17.7 km/h 45 % 0.0 mm
15:12 23.1 °C 10.8 °C 1027.3 hPa NNW 4.8 km/h 17.7 km/h 46 % 0.0 mm
15:17 23.2 °C 10.6 °C 1027.7 hPa NNE 9.7 km/h 17.7 km/h 45 % 0.0 mm
15:22 23.4 °C 10.8 °C 1027.7 hPa NW 6.4 km/h 19.3 km/h 45 % 0.0 mm
15:27 23.4 °C 10.8 °C 1027.7 hPa NW 19.3 km/h 19.3 km/h 45 % 0.0 mm
15:32 23.3 °C 10.0 °C 1027.7 hPa North 8.0 km/h 22.5 km/h 43 % 0.0 mm
15:37 23.2 °C 9.9 °C 1027.7 hPa NNE 12.9 km/h 22.5 km/h 43 % 0.0 mm
15:42 23.3 °C 10.7 °C 1027.7 hPa NNW 12.9 km/h 22.5 km/h 45 % 0.0 mm
15:47 23.4 °C 11.1 °C 1027.7 hPa NNW 12.9 km/h 22.5 km/h 46 % 0.0 mm
15:52 23.5 °C 10.9 °C 1027.7 hPa NNW 8.0 km/h 22.5 km/h 45 % 0.0 mm
15:57 23.6 °C 11.0 °C 1027.7 hPa NNW 6.4 km/h 22.5 km/h 45 % 0.0 mm
16:02 23.6 °C 10.6 °C 1027.7 hPa WNW 6.4 km/h 20.9 km/h 44 % 0.0 mm
16:07 23.6 °C 10.6 °C 1027.7 hPa WNW 11.3 km/h 17.7 km/h 44 % 0.0 mm
16:17 23.7 °C 11.1 °C 1027.3 hPa West 3.2 km/h 17.7 km/h 45 % 0.0 mm
16:22 24.1 °C 11.1 °C 1027.3 hPa NNW 4.8 km/h 17.7 km/h 44 % 0.0 mm
16:27 23.8 °C 10.5 °C 1027.3 hPa NE 17.7 km/h 19.3 km/h 43 % 0.0 mm
16:32 23.4 °C 10.8 °C 1027.3 hPa NNE 9.7 km/h 20.9 km/h 45 % 0.0 mm
16:37 23.7 °C 11.1 °C 1027.3 hPa NNW 9.7 km/h 20.9 km/h 45 % 0.0 mm
16:42 23.7 °C 11.1 °C 1027.3 hPa NNW 4.8 km/h 20.9 km/h 45 % 0.0 mm
16:47 23.6 °C 11.0 °C 1027.3 hPa North 9.7 km/h 20.9 km/h 45 % 0.0 mm
16:52 23.6 °C 10.6 °C 1027.3 hPa NNW 4.8 km/h 20.9 km/h 44 % 0.0 mm
16:57 23.6 °C 11.0 °C 1027.3 hPa WNW 12.9 km/h 20.9 km/h 45 % 0.0 mm
17:02 23.8 °C 10.8 °C 1027.3 hPa NNE 8.0 km/h 20.9 km/h 44 % 0.0 mm
17:07 23.9 °C 11.2 °C 1027.3 hPa NNW 4.8 km/h 20.9 km/h 45 % 0.0 mm
17:12 23.9 °C 11.2 °C 1027.7 hPa North 3.2 km/h 24.1 km/h 45 % 0.0 mm
17:17 23.8 °C 11.2 °C 1027.7 hPa NNW 8.0 km/h 24.1 km/h 45 % 0.0 mm
17:22 23.6 °C 11.0 °C 1027.7 hPa NNE 11.3 km/h 20.9 km/h 45 % 0.0 mm
17:27 23.7 °C 10.7 °C 1027.7 hPa NE 8.0 km/h 20.9 km/h 44 % 0.0 mm
17:32 23.8 °C 11.5 °C 1027.7 hPa NNE 8.0 km/h 20.9 km/h 46 % 0.0 mm
17:37 23.9 °C 11.6 °C 1027.7 hPa NW 11.3 km/h 19.3 km/h 46 % 0.0 mm
17:42 24.0 °C 11.7 °C 1027.7 hPa NNW 11.3 km/h 22.5 km/h 46 % 0.0 mm
17:47 24.0 °C 11.3 °C 1027.7 hPa ENE 1.6 km/h 22.5 km/h 45 % 0.0 mm
17:52 23.9 °C 11.6 °C 1027.7 hPa NNE 12.9 km/h 16.1 km/h 46 % 0.0 mm
17:57 23.9 °C 11.2 °C 1027.7 hPa NNE 17.7 km/h 20.9 km/h 45 % 0.0 mm
18:02 23.9 °C 11.6 °C 1027.7 hPa NW 12.9 km/h 22.5 km/h 46 % 0.0 mm
18:07 23.8 °C 11.5 °C 1027.7 hPa North 14.5 km/h 22.5 km/h 46 % 0.0 mm
18:12 23.9 °C 11.6 °C 1027.7 hPa North 9.7 km/h 22.5 km/h 46 % 0.0 mm
18:17 24.1 °C 11.8 °C 1027.7 hPa NNW 8.0 km/h 19.3 km/h 46 % 0.0 mm
18:22 23.9 °C 11.6 °C 1027.7 hPa NE 6.4 km/h 22.5 km/h 46 % 0.0 mm
18:27 24.1 °C 11.8 °C 1027.7 hPa NNW 12.9 km/h 22.5 km/h 46 % 0.0 mm
18:32 24.0 °C 11.7 °C 1027.7 hPa NW 8.0 km/h 24.1 km/h 46 % 0.0 mm
18:42 23.9 °C 11.6 °C 1027.7 hPa West 12.9 km/h 24.1 km/h 46 % 0.0 mm
18:52 23.9 °C 11.6 °C 1027.7 hPa NNE 19.3 km/h 19.3 km/h 46 % 0.0 mm
18:57 23.9 °C 11.6 °C 1027.7 hPa NNW 11.3 km/h 19.3 km/h 46 % 0.0 mm
19:02 23.7 °C 11.7 °C 1027.7 hPa NE 4.8 km/h 19.3 km/h 47 % 0.0 mm
19:07 23.8 °C 11.8 °C 1027.7 hPa ENE 9.7 km/h 20.9 km/h 47 % 0.0 mm
19:12 23.8 °C 11.5 °C 1027.7 hPa NNW 12.9 km/h 20.9 km/h 46 % 0.0 mm
19:17 23.7 °C 11.4 °C 1027.7 hPa North 11.3 km/h 20.9 km/h 46 % 0.0 mm
19:22 23.6 °C 11.3 °C 1027.7 hPa NNW 6.4 km/h 17.7 km/h 46 % 0.0 mm
19:27 23.5 °C 11.2 °C 1027.7 hPa NW 6.4 km/h 17.7 km/h 46 % 0.0 mm
19:32 23.4 °C 11.4 °C 1027.7 hPa NNE 8.0 km/h 17.7 km/h 47 % 0.0 mm
19:37 23.4 °C 11.1 °C 1027.7 hPa NE 4.8 km/h 17.7 km/h 46 % 0.0 mm
19:42 23.3 °C 11.4 °C 1027.7 hPa North 8.0 km/h 17.7 km/h 47 % 0.0 mm
19:47 23.3 °C 11.7 °C 1027.7 hPa NNE 1.6 km/h 17.7 km/h 48 % 0.0 mm
19:52 23.3 °C 11.7 °C 1027.7 hPa ENE 3.2 km/h 17.7 km/h 48 % 0.0 mm
19:57 23.3 °C 11.7 °C 1027.7 hPa NE 12.9 km/h 17.7 km/h 48 % 0.0 mm
20:02 23.1 °C 11.8 °C 1027.7 hPa North 3.2 km/h 17.7 km/h 49 % 0.0 mm
20:07 23.1 °C 11.5 °C 1027.7 hPa NNE 4.8 km/h 17.7 km/h 48 % 0.0 mm
20:12 23.0 °C 11.7 °C 1027.7 hPa NW 6.4 km/h 17.7 km/h 49 % 0.0 mm
20:17 22.9 °C 11.3 °C 1027.7 hPa NNE 4.8 km/h 17.7 km/h 48 % 0.0 mm
20:22 22.8 °C 11.2 °C 1027.7 hPa North 8.0 km/h 17.7 km/h 48 % 0.0 mm
20:27 22.8 °C 11.2 °C 1027.7 hPa ENE 4.8 km/h 17.7 km/h 48 % 0.0 mm
20:32 22.7 °C 11.4 °C 1027.7 hPa NNE 3.2 km/h 14.5 km/h 49 % 0.0 mm
20:37 22.6 °C 11.3 °C 1027.7 hPa NNW 4.8 km/h 14.5 km/h 49 % 0.0 mm
20:42 22.4 °C 11.5 °C 1028.0 hPa NNW 6.4 km/h 12.9 km/h 50 % 0.0 mm
20:47 22.2 °C 11.6 °C 1028.0 hPa NNW 3.2 km/h 9.7 km/h 51 % 0.0 mm
20:52 22.0 °C 11.4 °C 1028.0 hPa NNE 3.2 km/h 9.7 km/h 51 % 0.0 mm
20:57 21.8 °C 11.5 °C 1028.0 hPa NNE 1.6 km/h 9.7 km/h 52 % 0.0 mm
21:02 21.6 °C 11.6 °C 1028.0 hPa North 3.2 km/h 9.7 km/h 53 % 0.0 mm
21:07 21.3 °C 11.6 °C 1028.0 hPa Calm   6.4 km/h 54 % 0.0 mm
21:12 21.0 °C 11.6 °C 1028.3 hPa NNW 1.6 km/h 6.4 km/h 55 % 0.0 mm
21:17 20.8 °C 11.4 °C 1028.3 hPa NNE 3.2 km/h 4.8 km/h 55 % 0.0 mm
21:22 20.6 °C 11.5 °C 1028.3 hPa Calm   4.8 km/h 56 % 0.0 mm
21:32 20.2 °C 11.4 °C 1028.3 hPa Calm   3.2 km/h 57 % 0.0 mm
21:37 19.9 °C 11.4 °C 1028.3 hPa Calm     58 % 0.0 mm
21:42 19.5 °C 11.3 °C 1028.3 hPa Calm     59 % 0.0 mm
21:47 19.2 °C 11.5 °C 1028.3 hPa Calm     61 % 0.0 mm
21:52 19.1 °C 11.4 °C 1028.7 hPa Calm     61 % 0.0 mm
21:57 19.0 °C 11.6 °C 1028.7 hPa Calm     62 % 0.0 mm
22:02 19.1 °C 11.4 °C 1028.7 hPa Calm     61 % 0.0 mm
22:07 18.9 °C 11.5 °C 1028.7 hPa Calm     62 % 0.0 mm
22:12 18.8 °C 11.4 °C 1028.7 hPa Calm     62 % 0.0 mm
22:17 18.3 °C 11.4 °C 1028.7 hPa Calm     64 % 0.0 mm
22:22 18.1 °C 11.2 °C 1028.7 hPa Calm     64 % 0.0 mm
22:32 18.0 °C 11.3 °C 1029.0 hPa Calm     65 % 0.0 mm
22:37 17.7 °C 11.0 °C 1029.0 hPa Calm     65 % 0.0 mm
22:42 17.4 °C 11.2 °C 1029.0 hPa Calm     67 % 0.0 mm
22:47 17.2 °C 11.2 °C 1029.0 hPa Calm     68 % 0.0 mm
22:52 17.1 °C 11.4 °C 1029.0 hPa Calm     69 % 0.0 mm
22:57 17.2 °C 11.5 °C 1029.0 hPa Calm     69 % 0.0 mm
23:02 17.1 °C 11.4 °C 1029.0 hPa Calm     69 % 0.0 mm
23:07 17.1 °C 11.4 °C 1029.0 hPa Calm     69 % 0.0 mm
23:12 16.9 °C 11.4 °C 1029.0 hPa Calm     70 % 0.0 mm
23:17 16.7 °C 11.2 °C 1029.0 hPa Calm     70 % 0.0 mm
23:22 16.6 °C 11.3 °C 1029.0 hPa Calm     71 % 0.0 mm
23:27 16.5 °C 11.4 °C 1029.0 hPa Calm     72 % 0.0 mm
23:32 16.4 °C 11.3 °C 1029.0 hPa Calm     72 % 0.0 mm
23:37 16.2 °C 11.4 °C 1029.0 hPa Calm     73 % 0.0 mm
23:52 16.1 °C 11.5 °C 1029.0 hPa Calm     74 % 0.0 mm
23:57 15.9 °C 11.3 °C 1029.0 hPa Calm     74 % 0.0 mm
Meteo18
Compliments of Weather Underground - 4 mb

Script developed by  Jim McMurry - jmcmurry@mwt.net Adapted for the template by  Wim van der Kuil - Leuven-Template.eu

You find our weather info also at:

European Weather Network

Weather Underground

Equipment we use:

Weather-station
Davis Vue

Weather-program
Meteohub

Weather-server
Raspberry PI 2 B+

Provider
1 and 1

Davis Vue

Meteohub

Raspberry PI 2 B+

1 and 1